createdAt,value
2022-08-09T00:00:14.554Z,24.10
2022-08-09T00:02:50.075Z,24.10
2022-08-09T00:06:16.421Z,24.14
2022-08-09T00:08:10.197Z,24.16
2022-08-09T00:10:41.222Z,24.18
2022-08-09T00:13:16.899Z,24.04
2022-08-09T00:15:59.526Z,23.90
2022-08-09T00:18:35.777Z,23.63
2022-08-09T00:21:08.338Z,23.50
2022-08-09T00:23:57.991Z,23.55
2022-08-09T00:26:32.101Z,23.65
2022-08-09T00:29:02.030Z,23.66
2022-08-09T00:31:58.507Z,23.66
2022-08-09T00:34:19.465Z,23.60
2022-08-09T00:36:48.943Z,23.54
2022-08-09T00:40:09.338Z,23.51
2022-08-09T00:44:15.598Z,23.47
2022-08-09T00:44:54.170Z,23.43
2022-08-09T00:47:23.868Z,23.22
2022-08-09T00:49:55.027Z,23.10
2022-08-09T00:52:30.532Z,23.01
2022-08-09T00:55:00.967Z,22.88
2022-08-09T00:57:34.526Z,22.82
2022-08-09T01:00:20.701Z,22.86
2022-08-09T01:03:13.483Z,23.03
2022-08-09T01:05:55.739Z,23.09
2022-08-09T01:08:49.392Z,23.21
2022-08-09T01:11:36.605Z,23.26
2022-08-09T01:14:09.991Z,23.27
2022-08-09T01:16:47.507Z,23.29
2022-08-09T01:19:40.105Z,23.39
2022-08-09T01:22:34.064Z,23.44
2022-08-09T01:25:27.401Z,23.50
2022-08-09T01:27:57.901Z,23.55
2022-08-09T01:30:33.646Z,23.59
2022-08-09T01:33:04.893Z,23.69
2022-08-09T01:35:38.477Z,23.75
2022-08-09T01:38:15.584Z,23.80
2022-08-09T01:40:52.704Z,23.83
2022-08-09T01:43:50.898Z,23.89
2022-08-09T01:46:29.623Z,23.96
2022-08-09T01:49:10.427Z,24.00
2022-08-09T01:51:42.835Z,24.02
2022-08-09T01:54:14.198Z,24.04
2022-08-09T01:56:47.226Z,23.97
2022-08-09T01:59:23.114Z,24.03
2022-08-09T02:01:59.810Z,24.02
2022-08-09T02:04:30.372Z,24.04
2022-08-09T02:08:35.299Z,24.05
2022-08-09T02:10:08.448Z,24.08
2022-08-09T02:12:38.029Z,24.11
2022-08-09T02:15:11.717Z,24.10
2022-08-09T02:18:01.180Z,24.08
2022-08-09T02:20:34.776Z,24.04
2022-08-09T02:23:17.104Z,24.06
2022-08-09T02:25:51.277Z,23.97
2022-08-09T02:28:25.753Z,23.93
2022-08-09T02:30:58.894Z,23.92
2022-08-09T02:33:58.369Z,23.81
2022-08-09T02:36:22.780Z,23.77
2022-08-09T02:38:56.154Z,23.72
2022-08-09T02:41:28.723Z,23.59
2022-08-09T02:44:10.545Z,23.56
2022-08-09T02:46:52.600Z,23.54
2022-08-09T02:49:27.182Z,23.52
2022-08-09T02:52:07.929Z,23.49
2022-08-09T02:54:53.853Z,23.42
2022-08-09T02:57:23.951Z,23.41
2022-08-09T03:00:21.389Z,23.43
2022-08-09T03:02:58.144Z,23.34
2022-08-09T03:05:27.026Z,23.27
2022-08-09T03:07:55.926Z,23.27
2022-08-09T03:10:24.879Z,23.27
2022-08-09T03:12:53.668Z,23.29
2022-08-09T03:15:23.139Z,23.35
2022-08-09T03:17:53.852Z,23.42
2022-08-09T03:20:29.627Z,23.42
2022-08-09T03:23:05.557Z,23.40
2022-08-09T03:25:58.093Z,23.42
2022-08-09T03:28:28.038Z,23.44
2022-08-09T03:30:58.802Z,23.46
2022-08-09T03:33:54.316Z,23.46
2022-08-09T03:36:16.764Z,23.43
2022-08-09T03:38:45.082Z,23.46
2022-08-09T03:41:18.301Z,23.47
2022-08-09T03:44:03.060Z,23.49
2022-08-09T03:46:35.135Z,23.55
2022-08-09T03:49:08.777Z,23.52
2022-08-09T03:51:55.268Z,23.51
2022-08-09T03:54:29.158Z,23.54
2022-08-09T03:56:59.572Z,23.55
2022-08-09T03:59:52.754Z,23.54
2022-08-09T04:02:15.386Z,23.49
2022-08-09T04:04:53.925Z,23.51
2022-08-09T04:07:21.476Z,23.54
2022-08-09T04:09:52.886Z,23.54
2022-08-09T04:12:30.061Z,23.56
2022-08-09T04:15:01.372Z,23.53
2022-08-09T04:17:29.808Z,23.52
2022-08-09T04:19:57.193Z,23.52
2022-08-09T04:22:25.346Z,23.49
2022-08-09T04:24:55.248Z,23.42
2022-08-09T04:27:22.503Z,23.37
2022-08-09T04:29:50.461Z,23.35
2022-08-09T04:32:23.744Z,23.40
2022-08-09T04:34:58.936Z,23.42
2022-08-09T04:37:45.933Z,23.48
2022-08-09T04:40:29.092Z,23.49
2022-08-09T04:43:02.456Z,23.43
2022-08-09T04:45:31.047Z,23.41
2022-08-09T04:48:06.692Z,23.45
2022-08-09T04:50:38.215Z,23.47
2022-08-09T04:53:13.002Z,23.45
2022-08-09T04:55:58.467Z,23.49
2022-08-09T04:58:31.662Z,23.49
2022-08-09T05:01:00.232Z,23.50
2022-08-09T05:03:41.201Z,23.48
2022-08-09T05:06:27.234Z,23.48
2022-08-09T05:09:00.698Z,23.52
2022-08-09T05:11:30.600Z,23.55
2022-08-09T05:14:00.204Z,23.56
2022-08-09T05:16:31.676Z,23.57
2022-08-09T05:19:00.153Z,23.57
2022-08-09T05:21:30.249Z,23.58
2022-08-09T05:24:01.401Z,23.60
2022-08-09T05:26:36.311Z,23.59
2022-08-09T05:29:17.646Z,23.62
2022-08-09T05:31:56.111Z,23.60
2022-08-09T05:34:30.156Z,23.53
2022-08-09T05:37:11.335Z,23.57
2022-08-09T05:39:42.631Z,23.56
2022-08-09T05:42:20.786Z,23.54
2022-08-09T05:44:53.488Z,23.56
2022-08-09T05:47:22.997Z,23.57
2022-08-09T05:50:31.204Z,23.48
2022-08-09T05:52:41.760Z,23.52
2022-08-09T05:55:20.394Z,23.55
2022-08-09T05:57:50.860Z,23.56
2022-08-09T06:00:26.364Z,23.53
2022-08-09T06:02:56.884Z,23.49
2022-08-09T06:05:31.243Z,23.52
2022-08-09T06:08:18.986Z,23.52
2022-08-09T06:10:47.281Z,23.53
2022-08-09T06:13:20.663Z,23.45
2022-08-09T06:15:50.983Z,23.40
2022-08-09T06:18:24.002Z,23.42
2022-08-09T06:20:54.525Z,23.40
2022-08-09T06:23:55.434Z,23.40
2022-08-09T06:26:28.597Z,23.39
2022-08-09T06:29:00.132Z,23.40
2022-08-09T06:31:40.567Z,23.44
2022-08-09T06:34:19.128Z,23.42
2022-08-09T06:36:46.792Z,23.42
2022-08-09T06:39:15.319Z,23.43
2022-08-09T06:42:06.419Z,23.42
2022-08-09T06:44:30.185Z,23.39
2022-08-09T06:46:57.408Z,23.28
2022-08-09T06:49:44.697Z,23.30
2022-08-09T06:52:15.925Z,23.34
2022-08-09T06:54:43.742Z,23.30
2022-08-09T06:57:13.470Z,23.26
2022-08-09T07:00:51.630Z,23.32
2022-08-09T07:02:31.119Z,23.35
2022-08-09T07:05:00.525Z,23.38
2022-08-09T07:08:00.144Z,23.35
2022-08-09T07:10:29.506Z,23.32
2022-08-09T07:12:58.278Z,23.38
2022-08-09T07:15:53.870Z,23.42
2022-08-09T07:18:14.167Z,23.45
2022-08-09T07:20:43.491Z,23.51
2022-08-09T07:23:18.858Z,23.55
2022-08-09T07:25:52.581Z,23.62
2022-08-09T07:28:29.984Z,23.65
2022-08-09T07:30:57.442Z,23.67
2022-08-09T07:33:24.718Z,23.70
2022-08-09T07:35:54.150Z,23.73
2022-08-09T07:38:23.340Z,23.77
2022-08-09T07:41:08.294Z,23.75
2022-08-09T07:43:50.148Z,23.74
2022-08-09T07:46:23.441Z,23.79
2022-08-09T07:49:00.212Z,23.79
2022-08-09T07:52:06.260Z,23.80
2022-08-09T07:54:19.117Z,23.76
2022-08-09T07:56:54.960Z,23.82
2022-08-09T07:59:25.382Z,23.85
2022-08-09T08:02:00.866Z,23.88
2022-08-09T08:04:31.607Z,23.85
2022-08-09T08:07:09.606Z,23.81
2022-08-09T08:09:53.567Z,23.78
2022-08-09T08:12:28.341Z,23.73
2022-08-09T08:14:57.304Z,23.65
2022-08-09T08:17:54.008Z,23.68
2022-08-09T08:20:13.648Z,23.85
2022-08-09T08:22:41.724Z,23.84
2022-08-09T08:25:13.862Z,23.88
2022-08-09T08:27:43.048Z,23.95
2022-08-09T08:30:11.841Z,24.08
2022-08-09T08:32:41.721Z,24.17
2022-08-09T08:35:22.643Z,24.27
2022-08-09T08:38:01.993Z,24.39
2022-08-09T08:40:36.905Z,24.40
2022-08-09T08:43:13.575Z,24.46
2022-08-09T08:45:59.599Z,24.51
2022-08-09T08:48:33.309Z,24.50
2022-08-09T08:51:01.446Z,24.51
2022-08-09T08:53:32.186Z,24.54
2022-08-09T08:56:07.448Z,24.52
2022-08-09T08:58:36.347Z,24.63
2022-08-09T09:01:09.056Z,24.70
2022-08-09T09:03:50.564Z,24.68
2022-08-09T09:06:19.965Z,24.69
2022-08-09T09:08:52.754Z,24.68
2022-08-09T09:11:28.982Z,24.73
2022-08-09T09:13:59.499Z,24.67
2022-08-09T09:16:34.322Z,24.69
2022-08-09T09:19:41.495Z,24.68
2022-08-09T09:22:05.486Z,24.64
2022-08-09T09:25:00.811Z,24.63
2022-08-09T09:28:06.482Z,24.59
2022-08-09T09:30:41.385Z,24.59
2022-08-09T09:33:15.339Z,24.53
2022-08-09T09:36:20.472Z,24.53
2022-08-09T09:38:57.476Z,24.54
2022-08-09T09:41:25.014Z,24.61
2022-08-09T09:44:12.542Z,24.60
2022-08-09T09:46:51.409Z,24.65
2022-08-09T09:49:49.931Z,24.69
2022-08-09T09:52:35.576Z,24.67
2022-08-09T09:55:24.469Z,24.76
2022-08-09T09:58:19.085Z,24.81
2022-08-09T10:00:58.782Z,24.86
2022-08-09T10:03:57.818Z,24.87
2022-08-09T10:06:42.646Z,24.86
2022-08-09T10:09:23.227Z,24.89
2022-08-09T10:12:15.023Z,24.91
2022-08-09T10:14:51.386Z,25.00
2022-08-09T10:17:51.194Z,24.97
2022-08-09T10:20:15.008Z,25.00
2022-08-09T10:22:42.743Z,25.06
2022-08-09T10:25:14.181Z,25.11
2022-08-09T10:27:56.767Z,25.17
2022-08-09T10:34:08.255Z,25.25
2022-08-09T10:36:05.227Z,25.29
2022-08-09T10:38:56.471Z,25.25
2022-08-09T10:41:25.725Z,25.20
2022-08-09T10:44:01.222Z,25.22
2022-08-09T10:46:57.582Z,25.28
2022-08-09T10:49:51.366Z,25.33
2022-08-09T10:52:27.232Z,25.32
2022-08-09T10:54:55.993Z,25.24
2022-08-09T10:57:37.560Z,25.23
2022-08-09T11:00:37.425Z,25.29
2022-08-09T11:03:27.202Z,25.25
2022-08-09T11:06:22.704Z,25.23
2022-08-09T11:08:51.139Z,25.24
2022-08-09T11:11:21.474Z,25.31
2022-08-09T11:14:28.090Z,25.30
2022-08-09T11:16:56.635Z,25.29
2022-08-09T11:20:10.796Z,25.37
2022-08-09T11:22:45.830Z,25.41
2022-08-09T11:25:17.553Z,25.43
2022-08-09T11:28:03.634Z,25.49
2022-08-09T11:30:36.757Z,25.52
2022-08-09T11:33:19.412Z,25.54
2022-08-09T11:35:55.148Z,25.57
2022-08-09T11:38:34.743Z,25.46
2022-08-09T11:41:15.763Z,25.46
2022-08-09T11:43:49.144Z,25.55
2022-08-09T11:46:26.523Z,25.58
2022-08-09T11:49:05.134Z,25.65
2022-08-09T11:53:01.086Z,25.77
2022-08-09T11:55:52.474Z,25.87
2022-08-09T11:58:15.361Z,25.86
2022-08-09T12:00:53.133Z,25.78
2022-08-09T12:03:50.310Z,25.84
2022-08-09T12:06:26.837Z,25.82
2022-08-09T12:09:01.329Z,25.87
2022-08-09T12:11:31.475Z,25.93
2022-08-09T12:14:28.512Z,25.96
2022-08-09T12:16:59.787Z,26.05
2022-08-09T12:19:32.678Z,26.09
2022-08-09T12:22:03.394Z,26.07
2022-08-09T12:24:32.089Z,26.09
2022-08-09T12:29:15.116Z,26.09
2022-08-09T12:30:01.885Z,26.14
2022-08-09T12:32:44.888Z,26.10
2022-08-09T12:35:17.192Z,26.10
2022-08-09T12:37:52.447Z,26.13
2022-08-09T12:40:23.349Z,26.22
2022-08-09T12:42:52.157Z,26.21
2022-08-09T12:45:33.557Z,26.26
2022-08-09T12:48:28.024Z,26.29
2022-08-09T12:51:00.064Z,26.34
2022-08-09T12:53:40.726Z,26.26
2022-08-09T12:56:34.893Z,26.27
2022-08-09T12:59:10.129Z,26.38
2022-08-09T13:01:47.095Z,26.46
2022-08-09T13:04:36.293Z,26.58
2022-08-09T13:07:19.628Z,26.62
2022-08-09T13:10:05.727Z,26.67
2022-08-09T13:12:33.298Z,26.67
2022-08-09T13:15:08.500Z,26.66
2022-08-09T13:18:03.451Z,26.75
2022-08-09T13:21:20.439Z,26.73
2022-08-09T13:24:52.735Z,26.82
2022-08-09T13:26:50.132Z,27.02
2022-08-09T13:29:42.112Z,27.13
2022-08-09T13:32:17.073Z,27.25
2022-08-09T13:34:48.920Z,27.36
2022-08-09T13:37:24.759Z,27.41
2022-08-09T13:41:50.811Z,27.45
2022-08-09T13:42:54.619Z,27.46
2022-08-09T13:45:21.828Z,27.36
2022-08-09T13:47:59.916Z,27.28
2022-08-09T13:50:30.268Z,27.32
2022-08-09T13:52:58.876Z,27.39
2022-08-09T13:55:29.012Z,27.45
2022-08-09T13:57:58.395Z,27.46
2022-08-09T14:00:29.462Z,27.59
2022-08-09T14:03:03.864Z,27.63
2022-08-09T14:05:58.141Z,27.65
2022-08-09T14:08:30.481Z,27.70
2022-08-09T14:11:00.635Z,27.82
2022-08-09T14:14:23.567Z,27.92
2022-08-09T14:16:28.800Z,27.85
2022-08-09T14:18:58.397Z,27.87
2022-08-09T14:21:29.217Z,27.92
2022-08-09T14:23:57.658Z,28.03
2022-08-09T14:26:33.606Z,28.06
2022-08-09T14:30:04.408Z,28.11
2022-08-09T14:31:57.925Z,28.24
2022-08-09T14:34:33.013Z,28.41
2022-08-09T14:37:07.431Z,28.50
2022-08-09T14:39:47.817Z,28.56
2022-08-09T14:42:32.193Z,28.78
2022-08-09T14:46:38.826Z,28.94
2022-08-09T14:47:58.558Z,29.14
2022-08-09T14:50:29.411Z,29.17
2022-08-09T14:52:58.178Z,29.17
2022-08-09T14:55:25.797Z,29.23
2022-08-09T14:57:59.549Z,29.17
2022-08-09T15:00:27.023Z,29.16
2022-08-09T15:02:58.389Z,29.24
2022-08-09T15:05:27.593Z,29.22
2022-08-09T15:07:58.354Z,29.40
2022-08-09T15:10:27.185Z,29.59
2022-08-09T15:12:56.094Z,29.76
2022-08-09T15:15:24.469Z,29.80
2022-08-09T15:17:56.338Z,29.87
2022-08-09T15:22:01.100Z,29.81
2022-08-09T15:24:02.953Z,29.88
2022-08-09T15:25:58.885Z,30.04
2022-08-09T15:28:28.459Z,30.10
2022-08-09T15:31:10.428Z,30.12
2022-08-09T15:34:33.037Z,30.17
2022-08-09T15:36:31.967Z,30.23
2022-08-09T15:39:00.105Z,30.22
2022-08-09T15:41:32.128Z,30.31
2022-08-09T15:44:03.815Z,30.46
2022-08-09T15:46:34.489Z,30.51
2022-08-09T15:49:22.477Z,30.45
2022-08-09T15:52:03.626Z,30.38
2022-08-09T15:54:46.231Z,30.50
2022-08-09T15:57:18.978Z,30.62
2022-08-09T15:59:52.463Z,30.63
2022-08-09T16:02:27.221Z,30.74
2022-08-09T16:04:54.736Z,30.80
2022-08-09T16:07:21.968Z,30.93
2022-08-09T16:09:57.865Z,30.87
2022-08-09T16:12:33.120Z,30.80
2022-08-09T16:15:01.576Z,30.94
2022-08-09T16:17:29.122Z,31.05
2022-08-09T16:20:04.534Z,31.09
2022-08-09T16:22:37.617Z,31.21
2022-08-09T16:25:11.953Z,31.14
2022-08-09T16:27:40.743Z,31.17
2022-08-09T16:30:15.333Z,31.09
2022-08-09T16:33:08.817Z,31.24
2022-08-09T16:35:55.849Z,31.35
2022-08-09T16:38:25.221Z,31.36
2022-08-09T16:40:52.483Z,31.31
2022-08-09T16:43:20.909Z,31.24
2022-08-09T16:45:53.480Z,31.21
2022-08-09T16:48:39.465Z,31.18
2022-08-09T16:51:13.717Z,31.24
2022-08-09T16:54:25.067Z,31.29
2022-08-09T16:56:32.800Z,31.30
2022-08-09T16:59:06.453Z,31.29
2022-08-09T17:01:37.567Z,31.32
2022-08-09T17:04:06.878Z,31.21
2022-08-09T17:08:40.154Z,31.23
2022-08-09T17:09:46.137Z,31.28
2022-08-09T17:12:09.614Z,31.45
2022-08-09T17:14:37.050Z,31.51
2022-08-09T17:17:25.949Z,31.58
2022-08-09T17:20:29.932Z,31.69
2022-08-09T17:22:50.386Z,31.75
2022-08-09T17:25:20.461Z,31.85
2022-08-09T17:27:53.803Z,31.96
2022-08-09T17:30:28.091Z,32.15
2022-08-09T17:33:05.296Z,32.33
2022-08-09T17:35:47.431Z,32.45
2022-08-09T17:38:32.386Z,32.50
2022-08-09T17:41:02.896Z,32.38
2022-08-09T17:43:35.766Z,32.27
2022-08-09T17:46:08.665Z,32.05
2022-08-09T17:48:39.695Z,31.89
2022-08-09T17:51:19.207Z,31.70
2022-08-09T17:53:51.863Z,31.59
2022-08-09T17:56:27.556Z,31.58
2022-08-09T17:59:03.030Z,31.44
2022-08-09T18:01:58.034Z,31.40
2022-08-09T18:04:19.874Z,31.37
2022-08-09T18:06:54.008Z,31.48
2022-08-09T18:09:23.839Z,31.52
2022-08-09T18:12:05.230Z,31.51
2022-08-09T18:14:50.008Z,31.40
2022-08-09T18:17:27.517Z,31.39
2022-08-09T18:21:00.343Z,31.23
2022-08-09T18:22:57.040Z,31.11
2022-08-09T18:25:50.345Z,31.10
2022-08-09T18:28:21.671Z,30.97
2022-08-09T18:31:01.436Z,30.95
2022-08-09T18:33:28.987Z,30.86
2022-08-09T18:35:59.163Z,30.78
2022-08-09T18:38:27.872Z,30.67
2022-08-09T18:40:55.857Z,30.52
2022-08-09T18:43:24.936Z,30.42
2022-08-09T18:46:50.149Z,30.40
2022-08-09T18:48:42.419Z,30.33
2022-08-09T18:51:10.042Z,30.25
2022-08-09T18:53:56.515Z,30.28
2022-08-09T18:56:28.208Z,30.16
2022-08-09T18:58:57.302Z,30.04
2022-08-09T19:01:26.016Z,29.93
2022-08-09T19:04:01.166Z,29.85
2022-08-09T19:06:34.402Z,29.67
2022-08-09T19:09:04.775Z,29.37
2022-08-09T19:11:37.616Z,29.07
2022-08-09T19:14:06.575Z,28.69
2022-08-09T19:16:36.011Z,28.29
2022-08-09T19:19:21.365Z,28.16
2022-08-09T19:22:04.692Z,27.97
2022-08-09T19:24:38.655Z,27.68
2022-08-09T19:27:21.642Z,27.44
2022-08-09T19:30:21.394Z,27.20
2022-08-09T19:32:36.890Z,27.09
2022-08-09T19:35:04.964Z,26.96
2022-08-09T19:37:41.140Z,26.70
2022-08-09T19:40:20.173Z,26.49
2022-08-09T19:42:49.633Z,26.40
2022-08-09T19:45:17.735Z,26.26
2022-08-09T19:47:45.985Z,26.16
2022-08-09T19:50:51.303Z,26.09
2022-08-09T19:53:04.052Z,25.97
2022-08-09T19:56:03.405Z,25.92
2022-08-09T19:58:30.177Z,25.87
2022-08-09T20:00:58.080Z,25.83
2022-08-09T20:04:23.751Z,25.74
2022-08-09T20:06:22.372Z,25.68
2022-08-09T20:08:55.550Z,25.62
2022-08-09T20:11:26.542Z,25.56
2022-08-09T20:13:55.504Z,25.54
2022-08-09T20:16:34.395Z,25.60
2022-08-09T20:19:49.156Z,25.55
2022-08-09T20:21:56.953Z,25.48
2022-08-09T20:24:29.610Z,25.34
2022-08-09T20:27:02.101Z,25.18
2022-08-09T20:29:37.013Z,25.18
2022-08-09T20:32:29.907Z,25.21
2022-08-09T20:34:57.836Z,25.21
2022-08-09T20:37:25.570Z,25.17
2022-08-09T20:40:18.380Z,25.06
2022-08-09T20:42:53.199Z,24.98
2022-08-09T20:46:01.009Z,24.97
2022-08-09T20:48:20.957Z,24.93
2022-08-09T20:50:51.078Z,24.81
2022-08-09T20:53:35.821Z,24.80
2022-08-09T20:56:21.076Z,24.78
2022-08-09T20:58:49.410Z,24.71
2022-08-09T21:01:34.197Z,24.71
2022-08-09T21:04:08.291Z,24.74
2022-08-09T21:06:51.597Z,24.81
2022-08-09T21:09:24.911Z,24.82
2022-08-09T21:14:41.563Z,24.83
2022-08-09T21:18:21.807Z,24.83
2022-08-09T21:20:08.364Z,24.80
2022-08-09T21:22:47.032Z,24.74
2022-08-09T21:25:38.474Z,24.68
2022-08-09T21:28:07.553Z,24.65
2022-08-09T21:30:40.517Z,24.61
2022-08-09T21:33:09.474Z,24.66
2022-08-09T21:35:39.529Z,24.67
2022-08-09T21:38:11.498Z,24.63
2022-08-09T21:40:39.692Z,24.59
2022-08-09T21:43:08.333Z,24.62
2022-08-09T21:45:38.974Z,24.51
2022-08-09T21:48:07.787Z,24.52
2022-08-09T21:50:38.379Z,24.59
2022-08-09T21:53:19.804Z,24.64
2022-08-09T21:55:51.256Z,24.65
2022-08-09T21:58:18.455Z,24.61
2022-08-09T22:00:48.785Z,24.58
2022-08-09T22:03:25.535Z,24.57
2022-08-09T22:05:54.220Z,24.55
2022-08-09T22:08:24.733Z,24.41
2022-08-09T22:11:00.764Z,24.32
2022-08-09T22:13:43.293Z,24.33
2022-08-09T22:16:11.379Z,24.33
2022-08-09T22:18:52.905Z,24.38
2022-08-09T22:21:24.055Z,24.41
2022-08-09T22:24:01.182Z,24.48
2022-08-09T22:26:34.692Z,24.51
2022-08-09T22:29:07.556Z,24.51
2022-08-09T22:31:37.837Z,24.54
2022-08-09T22:34:09.695Z,24.54
2022-08-09T22:36:45.984Z,24.46
2022-08-09T22:39:46.994Z,24.39
2022-08-09T22:42:03.850Z,24.33
2022-08-09T22:44:32.814Z,24.24
2022-08-09T22:48:10.614Z,24.20
2022-08-09T22:49:52.031Z,24.11
2022-08-09T22:52:19.951Z,24.08
2022-08-09T22:54:48.128Z,24.06
2022-08-09T22:57:15.672Z,24.04
2022-08-09T22:59:58.317Z,23.99
2022-08-09T23:02:27.468Z,24.02
2022-08-09T23:04:55.293Z,24.02
2022-08-09T23:08:21.086Z,24.02
2022-08-09T23:10:31.992Z,23.99
2022-08-09T23:13:00.380Z,23.93
2022-08-09T23:15:28.940Z,23.88
2022-08-09T23:17:57.017Z,23.85
2022-08-09T23:20:26.466Z,23.86
2022-08-09T23:22:53.750Z,23.87
2022-08-09T23:25:21.211Z,23.89
2022-08-09T23:28:14.163Z,23.91
2022-08-09T23:30:35.550Z,23.89
2022-08-09T23:33:02.606Z,23.91
2022-08-09T23:35:29.714Z,23.93
2022-08-09T23:37:56.891Z,23.93
2022-08-09T23:40:23.994Z,23.94
2022-08-09T23:42:51.346Z,23.93
2022-08-09T23:45:37.854Z,23.97
2022-08-09T23:48:08.962Z,23.98
2022-08-09T23:50:36.588Z,23.98
2022-08-09T23:53:10.271Z,24.00
2022-08-09T23:55:39.594Z,23.98
2022-08-09T23:58:27.617Z,23.98
